CFG024 EDDM-HEGN
Flight info
| Callsign | CFG024 |
|---|---|
| Flight time | 3h 33m |
| Altitude | 37000 |
| Route | N0436F370 VAVOR M867 RADIZ DCT DOL DCT NIVES DCT VRANA DCT PETAK DCT ADDER DCT DIMIS DCT IPTES UL604 TRL DCT SALUN N705 MMA P751 DASUM Y234 FYM M872 BOPOB |
| Aircraft | A320/M-SDFGHIJ1RWY/LB1 |
Departure
| Time | 2026-05-04 11:05 |
|---|---|
| Airport | Munich Airport (EDDM) |
Arrival
| Time | 2026-05-04 14:39 |
|---|---|
| Airport | Hurghada International Airport (HEGN) |
| Time | Latitude | Longitude | Altitude | Speed | Heading |
|---|---|---|---|---|---|
| 2026-05-04 09:25 | 48.35320 | 11.78309 | 1486 ft | 0 kts | 83° |
| 2026-05-04 10:51 | 48.35332 | 11.78169 | 1474 ft | 3 kts | 154° |
| 2026-05-04 10:52 | 48.35346 | 11.78161 | 1477 ft | 1 kts | 173° |
| 2026-05-04 10:52 | 48.35360 | 11.78159 | 1476 ft | 2 kts | 173° |
| 2026-05-04 10:52 | 48.35364 | 11.78158 | 1475 ft | 0 kts | 173° |
| 2026-05-04 10:54 | 48.35362 | 11.78159 | 1485 ft | 3 kts | 173° |
| 2026-05-04 10:54 | 48.35315 | 11.78166 | 1485 ft | 2 kts | 174° |
| 2026-05-04 10:56 | 48.35258 | 11.78176 | 1473 ft | 9 kts | 175° |
| 2026-05-04 10:56 | 48.35203 | 11.78107 | 1481 ft | 13 kts | 252° |
| 2026-05-04 10:56 | 48.35191 | 11.77978 | 1485 ft | 12 kts | 262° |
| 2026-05-04 10:57 | 48.35176 | 11.77851 | 1485 ft | 12 kts | 249° |
| 2026-05-04 10:57 | 48.35090 | 11.77827 | 1485 ft | 15 kts | 173° |
| 2026-05-04 10:57 | 48.34976 | 11.77846 | 1485 ft | 17 kts | 173° |
| 2026-05-04 10:57 | 48.34864 | 11.77866 | 1485 ft | 15 kts | 173° |
| 2026-05-04 10:58 | 48.34758 | 11.77885 | 1485 ft | 15 kts | 173° |
| 2026-05-04 10:58 | 48.34670 | 11.77861 | 1482 ft | 12 kts | 240° |
| 2026-05-04 10:58 | 48.34652 | 11.77748 | 1479 ft | 10 kts | 263° |
| 2026-05-04 10:58 | 48.34640 | 11.77584 | 1485 ft | 22 kts | 263° |
| 2026-05-04 10:59 | 48.34622 | 11.77355 | 1472 ft | 21 kts | 263° |
| 2026-05-04 10:59 | 48.34604 | 11.77128 | 1485 ft | 22 kts | 264° |
| 2026-05-04 10:59 | 48.34587 | 11.76898 | 1480 ft | 23 kts | 263° |
| 2026-05-04 10:59 | 48.34568 | 11.76661 | 1485 ft | 23 kts | 263° |
| 2026-05-04 11:00 | 48.34549 | 11.76420 | 1479 ft | 24 kts | 264° |
| 2026-05-04 11:01 | 48.34315 | 11.75233 | 1483 ft | 6 kts | 174° |
| 2026-05-04 11:02 | 48.34231 | 11.75248 | 1485 ft | 21 kts | 172° |
| 2026-05-04 11:02 | 48.34100 | 11.75289 | 1477 ft | 16 kts | 131° |
| 2026-05-04 11:05 | 48.31347 | 11.99657 | 7989 ft | 273 kts | 155° |
| 2026-05-04 11:06 | 48.29629 | 12.00912 | 8860 ft | 276 kts | 155° |
| 2026-05-04 11:06 | 48.27910 | 12.02155 | 9727 ft | 279 kts | 155° |
| 2026-05-04 11:06 | 48.26147 | 12.03424 | 10435 ft | 287 kts | 156° |
| 2026-05-04 11:06 | 48.24275 | 12.04769 | 10701 ft | 311 kts | 155° |
| 2026-05-04 11:08 | 48.09500 | 12.15767 | 15120 ft | 354 kts | 153° |
| 2026-05-04 11:10 | 47.93928 | 12.28602 | 19278 ft | 377 kts | 153° |
| 2026-05-04 11:12 | 47.77263 | 12.42073 | 22820 ft | 403 kts | 153° |
| 2026-05-04 11:12 | 47.74789 | 12.44070 | 23289 ft | 406 kts | 153° |
| 2026-05-04 11:12 | 47.72294 | 12.46083 | 23735 ft | 410 kts | 153° |
| 2026-05-04 11:12 | 47.69810 | 12.48083 | 24109 ft | 413 kts | 153° |
| 2026-05-04 11:13 | 47.67275 | 12.50120 | 24480 ft | 416 kts | 153° |
| 2026-05-04 11:13 | 47.64722 | 12.52174 | 24833 ft | 419 kts | 153° |
| 2026-05-04 11:13 | 47.62245 | 12.54492 | 25166 ft | 424 kts | 144° |
| 2026-05-04 11:13 | 47.60002 | 12.57346 | 25516 ft | 427 kts | 139° |
| 2026-05-04 11:14 | 47.57785 | 12.60301 | 25866 ft | 430 kts | 139° |
| 2026-05-04 11:14 | 47.55547 | 12.63269 | 26202 ft | 433 kts | 139° |
| 2026-05-04 11:14 | 47.53295 | 12.66248 | 26520 ft | 436 kts | 139° |
| 2026-05-04 11:16 | 47.37172 | 12.87511 | 28716 ft | 454 kts | 139° |
| 2026-05-04 11:16 | 47.34809 | 12.90614 | 29007 ft | 456 kts | 139° |
| 2026-05-04 11:16 | 47.32430 | 12.93727 | 29286 ft | 459 kts | 139° |
| 2026-05-04 11:17 | 47.30037 | 12.96858 | 29556 ft | 461 kts | 139° |
| 2026-05-04 11:17 | 47.27663 | 12.99961 | 29825 ft | 464 kts | 139° |
| 2026-05-04 11:19 | 47.10575 | 13.22180 | 31651 ft | 469 kts | 139° |
| 2026-05-04 11:19 | 47.08127 | 13.25345 | 31956 ft | 468 kts | 139° |
| 2026-05-04 11:19 | 47.05714 | 13.28454 | 32240 ft | 468 kts | 139° |
| 2026-05-04 11:19 | 47.03274 | 13.31596 | 32537 ft | 467 kts | 139° |
| 2026-05-04 11:20 | 47.00834 | 13.34739 | 32832 ft | 466 kts | 139° |
| 2026-05-04 11:20 | 46.98400 | 13.37876 | 33108 ft | 466 kts | 139° |
| 2026-05-04 11:20 | 46.95969 | 13.41010 | 33400 ft | 465 kts | 139° |
| 2026-05-04 11:20 | 46.93539 | 13.44134 | 33691 ft | 465 kts | 139° |
| 2026-05-04 11:22 | 46.76625 | 13.65754 | 35475 ft | 460 kts | 139° |
| 2026-05-04 11:22 | 46.74210 | 13.68822 | 35712 ft | 460 kts | 139° |
| 2026-05-04 11:23 | 46.71799 | 13.71876 | 35931 ft | 459 kts | 139° |
| 2026-05-04 11:23 | 46.69392 | 13.74926 | 36145 ft | 458 kts | 139° |
| 2026-05-04 11:24 | 46.55036 | 13.93065 | 37086 ft | 455 kts | 139° |
| 2026-05-04 11:25 | 46.52660 | 13.96045 | 37083 ft | 455 kts | 139° |
| 2026-05-04 11:25 | 46.47899 | 14.02021 | 37082 ft | 456 kts | 139° |
| 2026-05-04 11:27 | 46.30067 | 14.24291 | 37073 ft | 457 kts | 139° |
| 2026-05-04 11:28 | 46.25238 | 14.30278 | 37077 ft | 458 kts | 139° |
| 2026-05-04 11:28 | 46.20400 | 14.36268 | 37078 ft | 458 kts | 139° |
| 2026-05-04 11:29 | 46.15560 | 14.42248 | 37085 ft | 459 kts | 139° |
| 2026-05-04 11:29 | 46.10742 | 14.48191 | 37087 ft | 459 kts | 139° |
| 2026-05-04 11:33 | 45.76823 | 14.89564 | 37103 ft | 456 kts | 141° |
| 2026-05-04 11:33 | 45.72011 | 14.95381 | 37089 ft | 456 kts | 141° |
| 2026-05-04 11:34 | 45.67165 | 15.01227 | 37083 ft | 456 kts | 141° |
| 2026-05-04 11:34 | 45.62306 | 15.07074 | 37078 ft | 456 kts | 141° |
| 2026-05-04 11:35 | 45.57446 | 15.12911 | 37078 ft | 457 kts | 141° |
| 2026-05-04 11:35 | 45.52576 | 15.18736 | 37075 ft | 457 kts | 141° |
| 2026-05-04 11:36 | 45.47735 | 15.24530 | 37072 ft | 458 kts | 141° |
| 2026-05-04 11:36 | 45.42849 | 15.30352 | 37078 ft | 458 kts | 141° |
| 2026-05-04 11:37 | 45.37959 | 15.36171 | 37079 ft | 459 kts | 141° |
| 2026-05-04 11:37 | 45.33057 | 15.41987 | 37073 ft | 459 kts | 141° |
| 2026-05-04 11:38 | 45.28180 | 15.47762 | 37075 ft | 460 kts | 141° |
| 2026-05-04 11:38 | 45.23258 | 15.53579 | 37077 ft | 460 kts | 141° |
| 2026-05-04 11:39 | 45.18332 | 15.59388 | 37079 ft | 461 kts | 141° |
| 2026-05-04 11:41 | 45.01025 | 15.79664 | 37088 ft | 463 kts | 141° |
| 2026-05-04 11:41 | 44.96052 | 15.85470 | 37089 ft | 464 kts | 141° |
| 2026-05-04 11:42 | 44.91069 | 15.91262 | 37088 ft | 464 kts | 141° |
| 2026-05-04 11:42 | 44.86113 | 15.97011 | 37090 ft | 465 kts | 141° |
| 2026-05-04 11:43 | 44.81120 | 16.02796 | 37092 ft | 465 kts | 141° |
| 2026-05-04 11:43 | 44.76115 | 16.08583 | 37094 ft | 465 kts | 141° |
| 2026-05-04 11:44 | 44.71106 | 16.14348 | 37099 ft | 466 kts | 141° |
| 2026-05-04 11:44 | 44.66120 | 16.20072 | 37097 ft | 466 kts | 141° |
| 2026-05-04 11:45 | 44.61094 | 16.25843 | 37107 ft | 467 kts | 141° |
| 2026-05-04 11:45 | 44.56066 | 16.31603 | 37114 ft | 467 kts | 141° |
| 2026-05-04 11:46 | 44.51067 | 16.37319 | 37116 ft | 467 kts | 141° |
| 2026-05-04 11:46 | 44.46026 | 16.43070 | 37113 ft | 467 kts | 141° |
| 2026-05-04 11:47 | 44.40976 | 16.48796 | 37111 ft | 467 kts | 141° |
| 2026-05-04 11:47 | 44.35915 | 16.54518 | 37114 ft | 468 kts | 141° |
| 2026-05-04 11:48 | 44.30896 | 16.60201 | 37112 ft | 468 kts | 141° |
| 2026-05-04 11:48 | 44.25835 | 16.65923 | 37110 ft | 468 kts | 141° |
| 2026-05-04 11:49 | 44.20768 | 16.71635 | 37112 ft | 469 kts | 141° |
| 2026-05-04 11:49 | 44.15695 | 16.77344 | 37117 ft | 469 kts | 141° |
| 2026-05-04 11:50 | 44.10641 | 16.83009 | 37119 ft | 470 kts | 141° |
| 2026-05-04 11:50 | 44.05544 | 16.88695 | 37120 ft | 470 kts | 141° |
| 2026-05-04 11:51 | 44.00442 | 16.94387 | 37126 ft | 471 kts | 141° |
| 2026-05-04 11:51 | 43.95333 | 17.00080 | 37133 ft | 471 kts | 141° |
| 2026-05-04 11:52 | 43.90251 | 17.05735 | 37136 ft | 472 kts | 141° |
| 2026-05-04 11:52 | 43.85132 | 17.11413 | 37133 ft | 472 kts | 141° |
| 2026-05-04 11:53 | 43.80004 | 17.17084 | 37132 ft | 472 kts | 141° |
| 2026-05-04 11:53 | 43.74906 | 17.22720 | 37136 ft | 472 kts | 141° |
| 2026-05-04 11:55 | 43.54359 | 17.45248 | 37134 ft | 473 kts | 141° |
| 2026-05-04 11:56 | 43.49197 | 17.50885 | 37134 ft | 473 kts | 141° |
| 2026-05-04 11:56 | 43.44037 | 17.56504 | 37125 ft | 473 kts | 141° |
| 2026-05-04 11:57 | 43.38874 | 17.62119 | 37117 ft | 474 kts | 141° |
| 2026-05-04 11:57 | 43.33736 | 17.67694 | 37114 ft | 474 kts | 141° |
| 2026-05-04 11:58 | 43.28543 | 17.73297 | 37114 ft | 475 kts | 141° |
| 2026-05-04 11:58 | 43.23353 | 17.78894 | 37115 ft | 475 kts | 141° |
| 2026-05-04 11:59 | 43.18152 | 17.84491 | 37123 ft | 476 kts | 141° |
| 2026-05-04 11:59 | 43.12949 | 17.90094 | 37128 ft | 476 kts | 141° |
| 2026-05-04 12:00 | 43.07773 | 17.95642 | 37139 ft | 476 kts | 141° |
| 2026-05-04 12:00 | 43.02559 | 18.01221 | 37146 ft | 476 kts | 141° |
| 2026-05-04 12:01 | 42.97337 | 18.06794 | 37156 ft | 476 kts | 141° |
| 2026-05-04 12:02 | 42.79053 | 18.26199 | 37155 ft | 477 kts | 141° |
| 2026-05-04 12:03 | 42.73804 | 18.31745 | 37156 ft | 478 kts | 141° |
| 2026-05-04 12:03 | 42.68595 | 18.37250 | 37165 ft | 478 kts | 141° |
| 2026-05-04 12:04 | 42.63335 | 18.42789 | 37159 ft | 478 kts | 141° |
| 2026-05-04 12:04 | 42.58066 | 18.48322 | 37160 ft | 479 kts | 141° |
| 2026-05-04 12:05 | 42.52789 | 18.53838 | 37162 ft | 479 kts | 141° |
| 2026-05-04 12:05 | 42.47547 | 18.59314 | 37160 ft | 479 kts | 141° |
| 2026-05-04 12:06 | 42.42263 | 18.64828 | 37164 ft | 480 kts | 141° |
| 2026-05-04 12:06 | 42.36970 | 18.70334 | 37166 ft | 480 kts | 141° |
| 2026-05-04 12:07 | 42.31678 | 18.75837 | 37164 ft | 480 kts | 141° |
| 2026-05-04 12:07 | 42.26412 | 18.81295 | 37160 ft | 480 kts | 141° |
| 2026-05-04 12:08 | 42.21106 | 18.86769 | 37155 ft | 480 kts | 141° |
| 2026-05-04 12:08 | 42.15795 | 18.92244 | 37149 ft | 481 kts | 141° |
| 2026-05-04 12:09 | 42.10476 | 18.97715 | 37143 ft | 481 kts | 141° |
| 2026-05-04 12:09 | 42.05190 | 19.03153 | 37142 ft | 481 kts | 141° |
| 2026-05-04 12:10 | 41.99868 | 19.08620 | 37137 ft | 482 kts | 141° |
| 2026-05-04 12:10 | 41.94531 | 19.14074 | 37138 ft | 482 kts | 141° |
| 2026-05-04 12:11 | 41.89320 | 19.19383 | 37136 ft | 483 kts | 141° |
| 2026-05-04 12:11 | 41.84006 | 19.24797 | 37136 ft | 483 kts | 141° |
| 2026-05-04 12:12 | 41.78653 | 19.30244 | 37138 ft | 483 kts | 142° |
| 2026-05-04 12:12 | 41.72917 | 19.34965 | 37136 ft | 485 kts | 149° |
| 2026-05-04 12:14 | 41.49522 | 19.52973 | 37140 ft | 487 kts | 149° |
| 2026-05-04 12:15 | 41.43644 | 19.57480 | 37141 ft | 487 kts | 149° |
| 2026-05-04 12:15 | 41.37765 | 19.61973 | 37142 ft | 488 kts | 149° |
| 2026-05-04 12:16 | 41.31915 | 19.66447 | 37142 ft | 488 kts | 149° |
| 2026-05-04 12:16 | 41.26020 | 19.70948 | 37142 ft | 488 kts | 149° |
| 2026-05-04 12:17 | 41.20120 | 19.75436 | 37139 ft | 489 kts | 149° |
| 2026-05-04 12:17 | 41.14251 | 19.79874 | 37135 ft | 489 kts | 149° |
| 2026-05-04 12:18 | 41.08342 | 19.84345 | 37133 ft | 489 kts | 149° |
| 2026-05-04 12:18 | 41.02428 | 19.88816 | 37129 ft | 489 kts | 149° |
| 2026-05-04 12:19 | 40.96508 | 19.93272 | 37123 ft | 489 kts | 149° |
| 2026-05-04 12:19 | 40.90627 | 19.97695 | 37120 ft | 489 kts | 149° |
| 2026-05-04 12:20 | 40.84708 | 20.02146 | 37118 ft | 489 kts | 149° |
| 2026-05-04 12:20 | 40.78791 | 20.06591 | 37118 ft | 489 kts | 149° |
| 2026-05-04 12:21 | 40.72868 | 20.11029 | 37115 ft | 490 kts | 149° |
| 2026-05-04 12:21 | 40.66979 | 20.15424 | 37114 ft | 490 kts | 149° |
| 2026-05-04 12:22 | 40.61043 | 20.19832 | 37109 ft | 490 kts | 150° |
| 2026-05-04 12:22 | 40.55107 | 20.24238 | 37105 ft | 490 kts | 150° |
| 2026-05-04 12:23 | 40.49164 | 20.28642 | 37104 ft | 491 kts | 150° |
| 2026-05-04 12:23 | 40.43254 | 20.33010 | 37096 ft | 491 kts | 149° |
| 2026-05-04 12:24 | 40.37302 | 20.37401 | 37104 ft | 491 kts | 150° |
| 2026-05-04 12:24 | 40.31345 | 20.41799 | 37095 ft | 492 kts | 149° |
| 2026-05-04 12:25 | 40.25377 | 20.46197 | 37094 ft | 492 kts | 150° |
| 2026-05-04 12:25 | 40.19396 | 20.50587 | 37106 ft | 493 kts | 150° |
| 2026-05-04 12:26 | 40.13455 | 20.54929 | 37096 ft | 493 kts | 150° |
| 2026-05-04 12:26 | 40.07467 | 20.59304 | 37105 ft | 493 kts | 150° |
| 2026-05-04 12:27 | 40.01437 | 20.63588 | 37119 ft | 493 kts | 151° |
| 2026-05-04 12:27 | 39.95368 | 20.67762 | 37116 ft | 493 kts | 152° |
| 2026-05-04 12:28 | 39.89330 | 20.71901 | 37134 ft | 494 kts | 152° |
| 2026-05-04 12:28 | 39.83264 | 20.76091 | 37133 ft | 494 kts | 151° |
| 2026-05-04 12:29 | 39.77195 | 20.80299 | 37141 ft | 494 kts | 151° |
| 2026-05-04 12:29 | 39.71117 | 20.84491 | 37137 ft | 495 kts | 151° |
| 2026-05-04 12:30 | 39.66062 | 20.87965 | 37138 ft | 495 kts | 152° |
| 2026-05-04 12:30 | 39.58982 | 20.92823 | 37147 ft | 495 kts | 152° |
| 2026-05-04 12:31 | 39.52885 | 20.96989 | 37130 ft | 496 kts | 152° |
| 2026-05-04 12:31 | 39.46782 | 21.01149 | 37135 ft | 496 kts | 152° |
| 2026-05-04 12:32 | 39.38664 | 21.06684 | 37125 ft | 496 kts | 152° |
| 2026-05-04 12:33 | 39.32568 | 21.10845 | 37119 ft | 496 kts | 152° |
| 2026-05-04 12:33 | 39.25478 | 21.15659 | 37122 ft | 496 kts | 152° |
| 2026-05-04 12:34 | 39.20344 | 21.19127 | 37119 ft | 497 kts | 152° |
| 2026-05-04 12:34 | 39.14222 | 21.23262 | 37118 ft | 497 kts | 152° |
| 2026-05-04 12:35 | 39.08130 | 21.27377 | 37118 ft | 498 kts | 152° |
| 2026-05-04 12:35 | 39.01985 | 21.31516 | 37116 ft | 499 kts | 152° |
| 2026-05-04 12:36 | 38.95834 | 21.35649 | 37122 ft | 499 kts | 152° |
| 2026-05-04 12:36 | 38.89678 | 21.39782 | 37128 ft | 499 kts | 152° |
| 2026-05-04 12:37 | 38.83518 | 21.43917 | 37130 ft | 500 kts | 152° |
| 2026-05-04 12:37 | 38.77398 | 21.48012 | 37133 ft | 500 kts | 152° |
| 2026-05-04 12:38 | 38.71230 | 21.52123 | 37134 ft | 500 kts | 152° |
| 2026-05-04 12:38 | 38.65057 | 21.56227 | 37138 ft | 500 kts | 152° |
| 2026-05-04 12:39 | 38.58889 | 21.60327 | 37145 ft | 500 kts | 153° |
| 2026-05-04 12:39 | 38.52747 | 21.64389 | 37143 ft | 501 kts | 153° |
| 2026-05-04 12:40 | 38.46561 | 21.68482 | 37148 ft | 501 kts | 153° |
| 2026-05-04 12:40 | 38.40368 | 21.72578 | 37149 ft | 502 kts | 153° |
| 2026-05-04 12:41 | 38.34164 | 21.76665 | 37154 ft | 502 kts | 153° |
| 2026-05-04 12:41 | 38.27952 | 21.80744 | 37156 ft | 503 kts | 153° |
| 2026-05-04 12:42 | 38.21738 | 21.84828 | 37159 ft | 503 kts | 153° |
| 2026-05-04 12:42 | 38.15564 | 21.88878 | 37155 ft | 502 kts | 153° |
| 2026-05-04 12:43 | 38.09351 | 21.92941 | 37155 ft | 502 kts | 153° |
| 2026-05-04 12:43 | 38.03139 | 21.97003 | 37155 ft | 502 kts | 153° |
| 2026-05-04 12:44 | 37.96921 | 22.01054 | 37151 ft | 502 kts | 153° |
| 2026-05-04 12:44 | 37.90701 | 22.05095 | 37141 ft | 502 kts | 153° |
| 2026-05-04 12:45 | 37.84520 | 22.09106 | 37139 ft | 503 kts | 153° |
| 2026-05-04 12:45 | 37.78294 | 22.13151 | 37139 ft | 503 kts | 153° |
| 2026-05-04 12:46 | 37.72063 | 22.17180 | 37135 ft | 503 kts | 154° |
| 2026-05-04 12:46 | 37.65828 | 22.21200 | 37134 ft | 504 kts | 154° |
| 2026-05-04 12:47 | 37.59627 | 22.25185 | 37135 ft | 503 kts | 154° |
| 2026-05-04 12:47 | 37.53391 | 22.29197 | 37133 ft | 503 kts | 154° |
| 2026-05-04 12:48 | 37.47156 | 22.33202 | 37127 ft | 503 kts | 154° |
| 2026-05-04 12:48 | 37.40917 | 22.37201 | 37126 ft | 503 kts | 154° |
| 2026-05-04 12:49 | 37.34685 | 22.41186 | 37123 ft | 503 kts | 154° |
| 2026-05-04 12:49 | 37.28491 | 22.45138 | 37121 ft | 502 kts | 154° |
| 2026-05-04 12:50 | 37.22262 | 22.49108 | 37121 ft | 502 kts | 154° |
| 2026-05-04 12:50 | 37.16031 | 22.53068 | 37118 ft | 502 kts | 154° |
| 2026-05-04 12:51 | 37.09839 | 22.56998 | 37114 ft | 502 kts | 154° |
| 2026-05-04 12:51 | 37.03595 | 22.60953 | 37125 ft | 503 kts | 154° |
| 2026-05-04 12:52 | 36.97349 | 22.64895 | 37135 ft | 503 kts | 155° |
| 2026-05-04 12:52 | 36.91101 | 22.68834 | 37131 ft | 503 kts | 155° |
| 2026-05-04 12:53 | 36.84902 | 22.72742 | 37134 ft | 503 kts | 155° |
| 2026-05-04 12:53 | 36.78661 | 22.76666 | 37133 ft | 502 kts | 155° |
| 2026-05-04 12:54 | 36.72414 | 22.80586 | 37131 ft | 503 kts | 155° |
| 2026-05-04 12:54 | 36.66159 | 22.84509 | 37136 ft | 503 kts | 155° |
| 2026-05-04 12:55 | 36.59941 | 22.88403 | 37144 ft | 504 kts | 155° |
| 2026-05-04 12:55 | 36.53672 | 22.92312 | 37159 ft | 504 kts | 155° |
| 2026-05-04 12:56 | 36.47395 | 22.96213 | 37173 ft | 505 kts | 155° |
| 2026-05-04 12:56 | 36.41113 | 23.00115 | 37185 ft | 505 kts | 155° |
| 2026-05-04 12:57 | 36.34870 | 23.03996 | 37201 ft | 505 kts | 155° |
| 2026-05-04 12:57 | 36.28581 | 23.07904 | 37199 ft | 506 kts | 155° |
| 2026-05-04 12:58 | 36.22288 | 23.11800 | 37204 ft | 505 kts | 156° |
| 2026-05-04 12:58 | 36.15995 | 23.15679 | 37191 ft | 505 kts | 156° |
| 2026-05-04 12:59 | 36.09740 | 23.19531 | 37187 ft | 505 kts | 156° |
| 2026-05-04 12:59 | 36.03452 | 23.23404 | 37169 ft | 505 kts | 156° |
| 2026-05-04 13:00 | 35.97170 | 23.27264 | 37162 ft | 504 kts | 156° |
| 2026-05-04 13:00 | 35.90928 | 23.31085 | 37160 ft | 504 kts | 156° |
| 2026-05-04 13:01 | 35.84647 | 23.34922 | 37166 ft | 504 kts | 156° |
| 2026-05-04 13:01 | 35.78369 | 23.38755 | 37157 ft | 504 kts | 156° |
| 2026-05-04 13:02 | 35.72088 | 23.42580 | 37160 ft | 504 kts | 156° |
| 2026-05-04 13:02 | 35.65849 | 23.46385 | 37153 ft | 504 kts | 156° |
| 2026-05-04 13:03 | 35.59571 | 23.50218 | 37153 ft | 504 kts | 156° |
| 2026-05-04 13:03 | 35.53283 | 23.54037 | 37169 ft | 504 kts | 157° |
| 2026-05-04 13:04 | 35.46991 | 23.57835 | 37166 ft | 504 kts | 157° |
| 2026-05-04 13:04 | 35.40733 | 23.61607 | 37161 ft | 504 kts | 157° |
| 2026-05-04 13:05 | 35.34442 | 23.65405 | 37165 ft | 504 kts | 157° |
| 2026-05-04 13:05 | 35.28151 | 23.69193 | 37158 ft | 504 kts | 157° |
| 2026-05-04 13:06 | 35.21856 | 23.72977 | 37155 ft | 504 kts | 157° |
| 2026-05-04 13:06 | 35.15607 | 23.76733 | 37149 ft | 504 kts | 157° |
| 2026-05-04 13:07 | 35.09308 | 23.80509 | 37150 ft | 504 kts | 158° |
| 2026-05-04 13:07 | 35.03011 | 23.84266 | 37149 ft | 504 kts | 158° |
| 2026-05-04 13:08 | 34.96716 | 23.88030 | 37147 ft | 504 kts | 158° |
| 2026-05-04 13:08 | 34.90466 | 23.91766 | 37143 ft | 504 kts | 158° |
| 2026-05-04 13:09 | 34.84171 | 23.95511 | 37145 ft | 503 kts | 158° |
| 2026-05-04 13:09 | 34.77876 | 23.99237 | 37148 ft | 503 kts | 158° |
| 2026-05-04 13:10 | 34.71590 | 24.02967 | 37150 ft | 503 kts | 158° |
| 2026-05-04 13:10 | 34.65342 | 24.06664 | 37148 ft | 503 kts | 158° |
| 2026-05-04 13:11 | 34.59052 | 24.10379 | 37151 ft | 503 kts | 158° |
| 2026-05-04 13:11 | 34.52767 | 24.14101 | 37150 ft | 502 kts | 158° |
| 2026-05-04 13:12 | 34.46490 | 24.17804 | 37158 ft | 502 kts | 158° |
| 2026-05-04 13:12 | 34.40247 | 24.21477 | 37155 ft | 502 kts | 158° |
| 2026-05-04 13:13 | 34.33966 | 24.25162 | 37157 ft | 501 kts | 158° |
| 2026-05-04 13:13 | 34.27693 | 24.28828 | 37155 ft | 501 kts | 158° |
| 2026-05-04 13:14 | 34.21427 | 24.32488 | 37155 ft | 500 kts | 158° |
| 2026-05-04 13:14 | 34.15158 | 24.36150 | 37157 ft | 500 kts | 158° |
| 2026-05-04 13:15 | 34.08936 | 24.39783 | 37157 ft | 500 kts | 158° |
| 2026-05-04 13:15 | 34.02688 | 24.43438 | 37161 ft | 500 kts | 155° |
| 2026-05-04 13:15 | 33.99780 | 24.45776 | 37160 ft | 506 kts | 141° |
| 2026-05-04 13:16 | 33.97167 | 24.48620 | 37162 ft | 506 kts | 140° |
| 2026-05-04 13:16 | 33.92000 | 24.54381 | 37166 ft | 506 kts | 139° |
| 2026-05-04 13:17 | 33.86896 | 24.60147 | 37161 ft | 506 kts | 139° |
| 2026-05-04 13:17 | 33.81760 | 24.65925 | 37158 ft | 506 kts | 139° |
| 2026-05-04 13:18 | 33.76613 | 24.71694 | 37160 ft | 506 kts | 139° |
| 2026-05-04 13:18 | 33.71472 | 24.77456 | 37156 ft | 505 kts | 139° |
| 2026-05-04 13:19 | 33.66365 | 24.83162 | 37159 ft | 505 kts | 140° |
| 2026-05-04 13:19 | 33.61221 | 24.88890 | 37155 ft | 505 kts | 140° |
| 2026-05-04 13:20 | 33.56068 | 24.94610 | 37156 ft | 505 kts | 140° |
| 2026-05-04 13:20 | 33.50922 | 25.00330 | 37157 ft | 505 kts | 140° |
| 2026-05-04 13:21 | 33.45806 | 25.06009 | 37158 ft | 505 kts | 140° |
| 2026-05-04 13:21 | 33.40648 | 25.11718 | 37161 ft | 505 kts | 140° |
| 2026-05-04 13:22 | 33.35487 | 25.17420 | 37166 ft | 505 kts | 140° |
| 2026-05-04 13:22 | 33.30328 | 25.23120 | 37164 ft | 505 kts | 140° |
| 2026-05-04 13:23 | 33.25203 | 25.28774 | 37166 ft | 505 kts | 140° |
| 2026-05-04 13:23 | 33.20036 | 25.34447 | 37165 ft | 504 kts | 140° |
| 2026-05-04 13:24 | 33.14872 | 25.40112 | 37159 ft | 504 kts | 140° |
| 2026-05-04 13:24 | 33.09740 | 25.45736 | 37159 ft | 504 kts | 141° |
| 2026-05-04 13:25 | 33.01996 | 25.54203 | 37155 ft | 503 kts | 141° |
| 2026-05-04 13:25 | 32.96834 | 25.59842 | 37150 ft | 503 kts | 141° |
| 2026-05-04 13:26 | 32.91672 | 25.65472 | 37150 ft | 503 kts | 141° |
| 2026-05-04 13:26 | 32.86536 | 25.71050 | 37151 ft | 503 kts | 141° |
| 2026-05-04 13:27 | 32.81368 | 25.76657 | 37152 ft | 503 kts | 141° |
| 2026-05-04 13:27 | 32.76191 | 25.82262 | 37152 ft | 503 kts | 141° |
| 2026-05-04 13:28 | 32.71022 | 25.87861 | 37152 ft | 503 kts | 141° |
| 2026-05-04 13:28 | 32.65883 | 25.93423 | 37157 ft | 503 kts | 141° |
| 2026-05-04 13:29 | 32.60709 | 25.99001 | 37160 ft | 503 kts | 142° |
| 2026-05-04 13:29 | 32.55531 | 26.04567 | 37150 ft | 502 kts | 142° |
| 2026-05-04 13:30 | 32.50359 | 26.10119 | 37157 ft | 502 kts | 142° |
| 2026-05-04 13:30 | 32.45224 | 26.15644 | 37152 ft | 502 kts | 142° |
| 2026-05-04 13:31 | 32.40057 | 26.21189 | 37155 ft | 501 kts | 142° |
| 2026-05-04 13:31 | 32.34883 | 26.26726 | 37150 ft | 501 kts | 142° |
| 2026-05-04 13:32 | 32.29709 | 26.32258 | 37147 ft | 502 kts | 142° |
| 2026-05-04 13:32 | 32.24562 | 26.37746 | 37149 ft | 502 kts | 142° |
| 2026-05-04 13:33 | 32.19381 | 26.43262 | 37145 ft | 501 kts | 142° |
| 2026-05-04 13:33 | 32.14197 | 26.48773 | 37141 ft | 502 kts | 142° |
| 2026-05-04 13:34 | 32.09013 | 26.54282 | 37141 ft | 502 kts | 142° |
| 2026-05-04 13:34 | 32.03859 | 26.59747 | 37142 ft | 502 kts | 143° |
| 2026-05-04 13:35 | 31.96066 | 26.67985 | 37142 ft | 502 kts | 143° |
| 2026-05-04 13:36 | 31.90875 | 26.73468 | 37137 ft | 502 kts | 143° |
| 2026-05-04 13:36 | 31.85678 | 26.78953 | 37140 ft | 502 kts | 143° |
| 2026-05-04 13:37 | 31.80514 | 26.84387 | 37142 ft | 501 kts | 143° |
| 2026-05-04 13:37 | 31.75317 | 26.89848 | 37144 ft | 501 kts | 143° |
| 2026-05-04 13:38 | 31.70120 | 26.95306 | 37150 ft | 501 kts | 143° |
| 2026-05-04 13:38 | 31.64918 | 27.00748 | 37147 ft | 501 kts | 143° |
| 2026-05-04 13:39 | 31.59749 | 27.06141 | 37153 ft | 501 kts | 143° |
| 2026-05-04 13:39 | 31.54551 | 27.11568 | 37153 ft | 500 kts | 143° |
| 2026-05-04 13:40 | 31.49350 | 27.16992 | 37154 ft | 500 kts | 144° |
| 2026-05-04 13:40 | 31.44149 | 27.22409 | 37153 ft | 500 kts | 144° |
| 2026-05-04 13:41 | 31.38980 | 27.27790 | 37150 ft | 500 kts | 144° |
| 2026-05-04 13:41 | 31.33775 | 27.33193 | 37148 ft | 501 kts | 144° |
| 2026-05-04 13:42 | 31.25952 | 27.41292 | 37140 ft | 501 kts | 144° |
| 2026-05-04 13:42 | 31.20759 | 27.46730 | 37134 ft | 505 kts | 138° |
| 2026-05-04 13:43 | 31.16440 | 27.53216 | 37127 ft | 511 kts | 131° |
| 2026-05-04 13:43 | 31.12194 | 27.59872 | 37113 ft | 511 kts | 131° |
| 2026-05-04 13:44 | 31.07944 | 27.66530 | 37116 ft | 512 kts | 131° |
| 2026-05-04 13:44 | 31.03683 | 27.73174 | 37114 ft | 512 kts | 131° |
| 2026-05-04 13:45 | 30.99446 | 27.79777 | 37120 ft | 512 kts | 131° |
| 2026-05-04 13:45 | 30.95182 | 27.86419 | 37121 ft | 512 kts | 132° |
| 2026-05-04 13:46 | 30.90906 | 27.93061 | 37115 ft | 512 kts | 132° |
| 2026-05-04 13:46 | 30.86626 | 27.99689 | 37112 ft | 512 kts | 132° |
| 2026-05-04 13:47 | 30.82344 | 28.06312 | 37106 ft | 512 kts | 132° |
| 2026-05-04 13:47 | 30.78091 | 28.12882 | 37104 ft | 512 kts | 132° |
| 2026-05-04 13:48 | 30.73801 | 28.19487 | 37105 ft | 512 kts | 132° |
| 2026-05-04 13:48 | 30.69511 | 28.26092 | 37105 ft | 512 kts | 133° |
| 2026-05-04 13:49 | 30.65220 | 28.32684 | 37106 ft | 512 kts | 133° |
| 2026-05-04 13:49 | 30.60959 | 28.39227 | 37109 ft | 511 kts | 133° |
| 2026-05-04 13:50 | 30.56665 | 28.45803 | 37102 ft | 511 kts | 133° |
| 2026-05-04 13:50 | 30.52373 | 28.52373 | 37097 ft | 511 kts | 133° |
| 2026-05-04 13:51 | 30.48087 | 28.58944 | 37097 ft | 511 kts | 133° |
| 2026-05-04 13:51 | 30.43822 | 28.65454 | 37096 ft | 510 kts | 133° |
| 2026-05-04 13:52 | 30.37366 | 28.75248 | 37090 ft | 510 kts | 133° |
| 2026-05-04 13:53 | 30.33060 | 28.81769 | 37092 ft | 510 kts | 133° |
| 2026-05-04 13:53 | 30.28758 | 28.88292 | 37091 ft | 510 kts | 133° |
| 2026-05-04 13:54 | 30.22325 | 28.98020 | 37088 ft | 510 kts | 134° |
| 2026-05-04 13:55 | 30.15858 | 29.07772 | 37083 ft | 509 kts | 134° |
| 2026-05-04 13:55 | 30.09420 | 29.17471 | 37082 ft | 509 kts | 134° |
| 2026-05-04 13:56 | 30.05110 | 29.23954 | 37088 ft | 509 kts | 134° |
| 2026-05-04 13:57 | 29.98631 | 29.33669 | 37096 ft | 509 kts | 134° |
| 2026-05-04 13:58 | 29.90019 | 29.46543 | 37094 ft | 509 kts | 134° |
| 2026-05-04 13:58 | 29.83528 | 29.56213 | 37094 ft | 508 kts | 134° |
| 2026-05-04 13:59 | 29.79201 | 29.62649 | 37095 ft | 508 kts | 134° |
| 2026-05-04 14:00 | 29.72737 | 29.72234 | 37095 ft | 507 kts | 134° |
| 2026-05-04 14:00 | 29.66253 | 29.81852 | 37089 ft | 507 kts | 134° |
| 2026-05-04 14:01 | 29.61930 | 29.88257 | 37094 ft | 507 kts | 134° |
| 2026-05-04 14:02 | 29.55464 | 29.97792 | 37092 ft | 506 kts | 134° |
| 2026-05-04 14:02 | 29.51131 | 30.04168 | 37088 ft | 506 kts | 135° |
| 2026-05-04 14:03 | 29.46794 | 30.10526 | 37090 ft | 506 kts | 135° |
| 2026-05-04 14:03 | 29.42465 | 30.16887 | 37093 ft | 506 kts | 134° |
| 2026-05-04 14:04 | 29.36045 | 30.26315 | 37091 ft | 505 kts | 135° |
| 2026-05-04 14:04 | 29.31714 | 30.32649 | 37090 ft | 505 kts | 135° |
| 2026-05-04 14:05 | 29.25241 | 30.42090 | 37092 ft | 504 kts | 135° |
| 2026-05-04 14:06 | 29.20908 | 30.48401 | 37088 ft | 504 kts | 135° |
| 2026-05-04 14:06 | 29.16574 | 30.54700 | 37085 ft | 504 kts | 135° |
| 2026-05-04 14:07 | 29.12241 | 30.60999 | 37085 ft | 503 kts | 135° |
| 2026-05-04 14:07 | 29.07940 | 30.67238 | 37082 ft | 503 kts | 135° |
| 2026-05-04 14:08 | 29.03608 | 30.73514 | 37076 ft | 503 kts | 135° |
| 2026-05-04 14:08 | 28.99276 | 30.79782 | 37076 ft | 503 kts | 135° |
| 2026-05-04 14:09 | 28.92804 | 30.89125 | 37073 ft | 502 kts | 135° |
| 2026-05-04 14:10 | 28.86289 | 30.98488 | 37079 ft | 502 kts | 135° |
| 2026-05-04 14:10 | 28.81945 | 31.04730 | 37074 ft | 502 kts | 135° |
| 2026-05-04 14:11 | 28.77604 | 31.10972 | 37080 ft | 502 kts | 135° |
| 2026-05-04 14:11 | 28.71118 | 31.20266 | 37066 ft | 502 kts | 135° |
| 2026-05-04 14:12 | 28.66912 | 31.26654 | 37064 ft | 506 kts | 131° |
| 2026-05-04 14:13 | 28.61113 | 31.36742 | 37067 ft | 508 kts | 129° |
| 2026-05-04 14:13 | 28.57259 | 31.43401 | 37070 ft | 507 kts | 130° |
| 2026-05-04 14:14 | 28.53299 | 31.50030 | 37066 ft | 506 kts | 131° |
| 2026-05-04 14:14 | 28.47338 | 31.59936 | 36689 ft | 506 kts | 131° |
| 2026-05-04 14:15 | 28.43392 | 31.66537 | 36074 ft | 505 kts | 131° |
| 2026-05-04 14:15 | 28.39469 | 31.73092 | 35484 ft | 505 kts | 130° |
| 2026-05-04 14:16 | 28.35515 | 31.79671 | 35010 ft | 504 kts | 130° |
| 2026-05-04 14:16 | 28.33539 | 31.82955 | 35071 ft | 504 kts | 130° |
| 2026-05-04 14:17 | 28.27609 | 31.92823 | 35058 ft | 504 kts | 130° |
| 2026-05-04 14:18 | 28.21703 | 32.02613 | 35060 ft | 504 kts | 131° |
| 2026-05-04 14:19 | 28.13771 | 32.15701 | 35057 ft | 504 kts | 131° |
| 2026-05-04 14:19 | 28.09811 | 32.22251 | 34889 ft | 504 kts | 131° |
| 2026-05-04 14:19 | 28.07829 | 32.25520 | 34597 ft | 503 kts | 131° |
| 2026-05-04 14:20 | 28.05872 | 32.28740 | 34316 ft | 503 kts | 131° |
| 2026-05-04 14:20 | 28.03895 | 32.31987 | 34029 ft | 503 kts | 130° |
| 2026-05-04 14:20 | 28.01913 | 32.35241 | 33706 ft | 501 kts | 130° |
| 2026-05-04 14:21 | 27.97972 | 32.41711 | 33061 ft | 496 kts | 130° |
| 2026-05-04 14:21 | 27.96041 | 32.44892 | 32749 ft | 486 kts | 131° |
| 2026-05-04 14:21 | 27.94142 | 32.48020 | 32437 ft | 484 kts | 131° |
| 2026-05-04 14:21 | 27.92185 | 32.51215 | 32133 ft | 501 kts | 130° |
| 2026-05-04 14:22 | 27.90209 | 32.54431 | 31827 ft | 509 kts | 131° |
| 2026-05-04 14:22 | 27.88180 | 32.57735 | 31384 ft | 513 kts | 130° |
| 2026-05-04 14:22 | 27.86131 | 32.61065 | 30416 ft | 516 kts | 130° |
| 2026-05-04 14:22 | 27.84094 | 32.64381 | 30126 ft | 514 kts | 130° |
| 2026-05-04 14:23 | 27.80015 | 32.71032 | 29578 ft | 515 kts | 130° |
| 2026-05-04 14:23 | 27.77970 | 32.74360 | 29198 ft | 516 kts | 130° |
| 2026-05-04 14:23 | 27.75923 | 32.77689 | 28469 ft | 516 kts | 130° |
| 2026-05-04 14:24 | 27.73906 | 32.80975 | 28094 ft | 516 kts | 129° |
| 2026-05-04 14:24 | 27.71856 | 32.84312 | 27246 ft | 519 kts | 129° |
| 2026-05-04 14:24 | 27.69777 | 32.87630 | 26643 ft | 516 kts | 130° |
| 2026-05-04 14:24 | 27.67665 | 32.90911 | 26282 ft | 518 kts | 131° |
| 2026-05-04 14:25 | 27.65523 | 32.94180 | 25626 ft | 518 kts | 131° |
| 2026-05-04 14:25 | 27.61209 | 33.00721 | 24388 ft | 521 kts | 131° |
| 2026-05-04 14:25 | 27.59070 | 33.03983 | 23680 ft | 512 kts | 130° |
| 2026-05-04 14:26 | 27.56995 | 33.07161 | 22456 ft | 510 kts | 130° |
| 2026-05-04 14:26 | 27.54902 | 33.10377 | 21604 ft | 504 kts | 130° |
| 2026-05-04 14:26 | 27.52859 | 33.13523 | 20928 ft | 493 kts | 130° |
| 2026-05-04 14:26 | 27.50837 | 33.16630 | 19974 ft | 491 kts | 130° |
| 2026-05-04 14:27 | 27.48819 | 33.19721 | 19308 ft | 484 kts | 130° |
| 2026-05-04 14:27 | 27.46842 | 33.22747 | 18725 ft | 476 kts | 130° |
| 2026-05-04 14:27 | 27.44893 | 33.25727 | 18140 ft | 469 kts | 130° |
| 2026-05-04 14:27 | 27.42971 | 33.28664 | 17489 ft | 463 kts | 130° |
| 2026-05-04 14:28 | 27.41064 | 33.31575 | 16849 ft | 461 kts | 130° |
| 2026-05-04 14:28 | 27.39190 | 33.34432 | 16236 ft | 460 kts | 130° |
| 2026-05-04 14:28 | 27.37288 | 33.37327 | 15629 ft | 460 kts | 130° |
| 2026-05-04 14:28 | 27.35385 | 33.40219 | 15032 ft | 460 kts | 130° |
| 2026-05-04 14:29 | 27.31602 | 33.45973 | 14131 ft | 447 kts | 130° |
| 2026-05-04 14:29 | 27.30971 | 33.46904 | 14052 ft | 440 kts | 133° |
| 2026-05-04 14:30 | 27.29263 | 33.48829 | 13925 ft | 424 kts | 143° |
| 2026-05-04 14:30 | 27.27081 | 33.50950 | 13435 ft | 418 kts | 144° |
| 2026-05-04 14:30 | 27.22674 | 33.55162 | 12021 ft | 412 kts | 144° |
| 2026-05-04 14:31 | 27.20535 | 33.57207 | 11254 ft | 395 kts | 144° |
| 2026-05-04 14:31 | 27.16468 | 33.61116 | 9401 ft | 374 kts | 144° |
| 2026-05-04 14:32 | 27.12657 | 33.64764 | 7852 ft | 347 kts | 144° |
| 2026-05-04 14:32 | 27.10854 | 33.66457 | 7121 ft | 338 kts | 144° |
| 2026-05-04 14:32 | 27.09080 | 33.68121 | 6490 ft | 326 kts | 144° |
| 2026-05-04 14:32 | 27.07372 | 33.69723 | 5896 ft | 314 kts | 143° |
| 2026-05-04 14:33 | 27.05764 | 33.71348 | 5239 ft | 308 kts | 140° |
| 2026-05-04 14:33 | 27.04213 | 33.72979 | 4530 ft | 304 kts | 140° |
| 2026-05-04 14:33 | 27.02664 | 33.74590 | 3703 ft | 304 kts | 136° |
| 2026-05-04 14:33 | 27.01479 | 33.76480 | 3155 ft | 289 kts | 109° |
| 2026-05-04 14:34 | 27.01063 | 33.78608 | 2650 ft | 272 kts | 91° |
| 2026-05-04 14:34 | 27.01034 | 33.80595 | 2247 ft | 241 kts | 69° |
| 2026-05-04 14:34 | 27.01853 | 33.81983 | 2129 ft | 200 kts | 25° |
| 2026-05-04 14:34 | 27.03094 | 33.82527 | 2135 ft | 189 kts | 12° |
| 2026-05-04 14:35 | 27.04333 | 33.82938 | 2142 ft | 182 kts | 11° |
| 2026-05-04 14:35 | 27.05461 | 33.83243 | 2136 ft | 151 kts | 354° |
| 2026-05-04 14:35 | 27.06398 | 33.82995 | 2122 ft | 134 kts | 339° |
| 2026-05-04 14:35 | 27.07225 | 33.82560 | 1924 ft | 128 kts | 333° |
| 2026-05-04 14:36 | 27.08021 | 33.82113 | 1761 ft | 127 kts | 334° |
| 2026-05-04 14:36 | 27.08824 | 33.81730 | 1591 ft | 129 kts | 342° |
| 2026-05-04 14:36 | 27.09685 | 33.81471 | 1422 ft | 127 kts | 344° |
| 2026-05-04 14:36 | 27.10540 | 33.81228 | 1258 ft | 126 kts | 344° |
| 2026-05-04 14:37 | 27.11388 | 33.80986 | 1090 ft | 126 kts | 343° |
| 2026-05-04 14:37 | 27.12241 | 33.80741 | 924 ft | 127 kts | 343° |
| 2026-05-04 14:37 | 27.13111 | 33.80490 | 750 ft | 129 kts | 346° |
| 2026-05-04 14:37 | 27.13975 | 33.80246 | 562 ft | 128 kts | 346° |
| 2026-05-04 14:38 | 27.14824 | 33.80010 | 396 ft | 128 kts | 346° |
| 2026-05-04 14:38 | 27.15679 | 33.79749 | 220 ft | 127 kts | 346° |
| 2026-05-04 14:38 | 27.16497 | 33.79514 | 115 ft | 111 kts | 342° |
| 2026-05-04 14:38 | 27.17081 | 33.79340 | 109 ft | 54 kts | 345° |
| 2026-05-04 14:39 | 27.17400 | 33.79245 | 100 ft | 42 kts | 345° |
| 2026-05-04 14:39 | 27.17605 | 33.79183 | 98 ft | 26 kts | 346° |
| 2026-05-04 14:39 | 27.17796 | 33.79153 | 100 ft | 24 kts | 0° |
| 2026-05-04 14:40 | 27.17918 | 33.79286 | 96 ft | 16 kts | 158° |
| 2026-05-04 14:40 | 27.17809 | 33.79319 | 96 ft | 16 kts | 166° |
| 2026-05-04 14:40 | 27.17709 | 33.79348 | 97 ft | 13 kts | 165° |
| 2026-05-04 14:40 | 27.17622 | 33.79375 | 100 ft | 16 kts | 165° |
| 2026-05-04 14:41 | 27.17485 | 33.79414 | 103 ft | 23 kts | 165° |
| 2026-05-04 14:41 | 27.17342 | 33.79458 | 102 ft | 20 kts | 165° |
| 2026-05-04 14:41 | 27.17248 | 33.79581 | 99 ft | 14 kts | 75° |
| 2026-05-04 14:42 | 27.17324 | 33.79900 | 59 ft | 27 kts | 75° |
| 2026-05-04 14:42 | 27.17366 | 33.80073 | 54 ft | 21 kts | 77° |
| 2026-05-04 14:42 | 27.17405 | 33.80236 | 49 ft | 21 kts | 73° |
| 2026-05-04 14:43 | 27.17444 | 33.80404 | 52 ft | 19 kts | 75° |
| 2026-05-04 14:43 | 27.17474 | 33.80532 | 52 ft | 17 kts | 74° |
| 2026-05-04 14:43 | 27.17513 | 33.80612 | 58 ft | 11 kts | 23° |
| 2026-05-04 14:43 | 27.17592 | 33.80607 | 55 ft | 11 kts | 1° |
| 2026-05-04 14:44 | 27.17626 | 33.80663 | 56 ft | 9 kts | 76° |
| 2026-05-04 14:44 | 27.17634 | 33.80697 | 53 ft | 0 kts | 75° |